Time;durP1;ratioP1;P1;durP2;ratioP2;P2;SDS_P1;SDS_P2;PMS_P1;PMS_P2;Temp;Humidity;BMP_temperature;BMP_pressure;BME280_temperature;BME280_humidity;BME280_pressure;Samples;Min_cycle;Max_cycle;Signal;HPM_P1;HPM_P2
2023/04/22 00:00:14;;;;;;;;;40.75;33.75;;;;;5.05;87.95;98338.50;4847771;28;102306;-74
2023/04/22 00:02:40;;;;;;;;;33.25;28.50;;;;;5.10;87.50;98338.84;4838878;28;102257;-74
2023/04/22 00:05:17;;;;;;;;;23.00;22.50;;;;;5.12;87.28;98326.94;4846695;28;103402;-75
2023/04/22 00:08:07;;;;;;;;;22.50;19.00;;;;;5.12;87.46;98329.63;4846511;28;102252;-74
2023/04/22 00:10:53;;;;;;;;;38.75;34.00;;;;;4.92;89.15;98341.75;4840477;28;101928;-74
2023/04/22 00:13:36;;;;;;;;;28.00;26.50;;;;;4.92;89.79;98347.09;4845493;28;102159;-75
2023/04/22 00:16:15;;;;;;;;;32.00;27.75;;;;;4.92;89.97;98336.38;4846919;28;108669;-74
2023/04/22 00:18:42;;;;;;;;;27.50;21.25;;;;;4.95;89.46;98338.75;4848130;28;102354;-73
2023/04/22 00:21:09;;;;;;;;;21.25;17.00;;;;;4.97;88.98;98338.56;4844396;28;102217;-72
2023/04/22 00:23:36;;;;;;;;;37.25;30.25;;;;;4.91;88.43;98330.19;4842785;28;102312;-73
2023/04/22 00:26:03;;;;;;;;;40.50;32.75;;;;;4.89;89.67;98326.88;4846916;28;104435;-74
2023/04/22 00:28:30;;;;;;;;;49.67;41.00;;;;;4.82;89.40;98336.56;4846548;28;102031;-75
2023/04/22 00:30:57;;;;;;;;;59.33;43.67;;;;;4.76;90.15;98331.09;4845775;28;102283;-74
2023/04/22 00:33:24;;;;;;;;;56.33;43.00;;;;;4.73;91.05;98334.09;4827621;29;103663;-74
2023/04/22 00:35:53;;;;;;;;;53.00;43.00;;;;;4.73;91.70;98329.56;4838251;28;104029;-74
2023/04/22 00:38:20;;;;;;;;;52.67;43.00;;;;;4.67;90.49;98324.91;4849468;28;103688;-74
2023/04/22 00:40:47;;;;;;;;;57.67;42.33;;;;;4.59;90.90;98324.09;4840605;28;102474;-74
2023/04/22 00:43:15;;;;;;;;;58.67;47.00;;;;;4.48;91.73;98326.13;4839408;28;102456;-74
2023/04/22 00:45:43;;;;;;;;;64.67;44.33;;;;;4.45;92.02;98318.44;4840729;28;104026;-73
2023/04/22 00:48:12;;;;;;;;;55.33;42.67;;;;;4.35;92.50;98325.78;4847505;28;102726;-72
2023/04/22 00:50:39;;;;;;;;;62.67;45.67;;;;;4.22;93.30;98317.44;4847556;28;104008;-74
2023/04/22 00:53:06;;;;;;;;;60.67;49.33;;;;;4.06;93.76;98290.66;4844782;28;102077;-74
2023/04/22 00:55:33;;;;;;;;;69.33;48.67;;;;;4.17;93.02;98321.63;4837694;28;104156;-74
2023/04/22 00:58:02;;;;;;;;;63.00;49.33;;;;;3.90;96.54;98330.81;4842096;28;102664;-74
2023/04/22 01:00:29;;;;;;;;;72.00;54.67;;;;;3.75;96.57;98330.59;4844874;28;102612;-74
2023/04/22 01:02:57;;;;;;;;;68.67;52.67;;;;;3.75;98.40;98322.59;4841768;28;102602;-74
2023/04/22 01:05:36;;;;;;;;;74.67;56.33;;;;;3.66;99.05;98330.75;4837288;28;104037;-74
2023/04/22 01:08:22;;;;;;;;;77.00;57.00;;;;;3.58;98.76;98328.91;4844889;28;102577;-74
2023/04/22 01:11:20;;;;;;;;;61.00;45.67;;;;;3.67;98.17;98319.91;4844969;28;102316;-74
2023/04/22 01:14:08;;;;;;;;;65.33;46.33;;;;;3.74;97.26;98322.78;4843228;28;103667;-74
2023/04/22 01:16:57;;;;;;;;;53.00;41.33;;;;;3.64;95.93;98304.19;4841247;28;107780;-74
2023/04/22 01:19:31;;;;;;;;;53.00;40.33;;;;;3.76;96.87;98321.59;4847210;28;102335;-74
2023/04/22 01:22:01;;;;;;;;;47.67;39.00;;;;;3.78;96.02;98324.09;4844207;28;102080;-74
2023/04/22 01:24:28;;;;;;;;;69.00;52.00;;;;;3.70;97.20;98322.25;4846478;28;102249;-74
2023/04/22 01:26:55;;;;;;;;;65.33;49.33;;;;;3.69;96.96;98325.09;4839458;28;104031;-74
2023/04/22 01:29:22;;;;;;;;;79.33;56.67;;;;;3.67;99.15;98322.56;4852369;28;102254;-74
2023/04/22 01:31:49;;;;;;;;;71.33;53.00;;;;;3.65;99.71;98327.25;4848570;28;101892;-73
2023/04/22 01:34:16;;;;;;;;;70.33;51.67;;;;;3.67;98.91;98319.06;4845219;28;102470;-74
2023/04/22 01:36:43;;;;;;;;;65.33;48.67;;;;;3.72;97.44;98319.41;4843045;28;104178;-73
2023/04/22 01:39:10;;;;;;;;;53.33;42.00;;;;;3.77;96.86;98322.44;4842805;28;102424;-74
2023/04/22 01:41:38;;;;;;;;;56.00;40.00;;;;;3.80;96.28;98317.59;4794793;28;1370960;-74
2023/04/22 01:44:05;;;;;;;;;43.00;36.33;;;;;3.85;96.16;98317.09;4854386;28;102042;-73
2023/04/22 01:46:32;;;;;;;;;27.25;24.75;;;;;3.77;95.35;98304.56;4843513;28;108785;-73
2023/04/22 01:48:59;;;;;;;;;27.00;23.25;;;;;3.94;95.59;98327.63;4841332;28;102367;-75
2023/04/22 01:51:26;;;;;;;;;17.25;15.00;;;;;3.94;94.84;98318.75;4854667;28;102229;-74
2023/04/22 01:53:53;;;;;;;;;27.25;24.75;;;;;3.86;95.70;98316.09;4852750;28;103004;-74
2023/04/22 01:56:20;;;;;;;;;22.75;19.25;;;;;3.91;94.47;98325.28;4843289;28;103988;-74
2023/04/22 01:58:48;;;;;;;;;21.25;16.00;;;;;3.87;94.10;98318.56;4843148;28;102439;-74
2023/04/22 02:01:15;;;;;;;;;32.00;28.00;;;;;3.79;95.25;98323.09;4850464;28;102055;-74
2023/04/22 02:03:42;;;;;;;;;26.00;22.75;;;;;3.81;95.58;98323.78;4852137;28;102021;-74
2023/04/22 02:06:09;;;;;;;;;22.25;17.00;;;;;3.81;94.63;98321.94;4847352;28;104101;-73
2023/04/22 02:08:37;;;;;;;;;18.50;16.50;;;;;3.78;93.90;98313.41;4844378;28;102449;-74
2023/04/22 02:11:04;;;;;;;;;16.00;14.00;;;;;3.78;93.02;98324.91;4844647;28;101940;-74
2023/04/22 02:13:35;;;;;;;;;21.00;20.50;;;;;3.71;93.08;98323.06;4846021;28;102247;-74
2023/04/22 02:16:03;;;;;;;;;21.00;16.00;;;;;3.65;95.45;98323.75;4847375;28;104109;-73
2023/04/22 02:18:30;;;;;;;;;40.33;34.00;;;;;3.52;96.03;98316.19;4846583;28;102057;-73
2023/04/22 02:20:57;;;;;;;;;40.00;34.33;;;;;3.47;97.87;98321.19;4841261;28;102227;-74
2023/04/22 02:23:24;;;;;;;;;28.00;25.00;;;;;3.51;97.52;98326.03;4850976;28;102263;-74
2023/04/22 02:25:52;;;;;;;;;31.75;26.25;;;;;3.48;98.00;98320.19;4845622;28;104081;-74
2023/04/22 02:28:18;;;;;;;;;42.00;37.33;;;;;3.41;97.99;98325.38;4844975;28;102005;-74
2023/04/22 02:30:45;;;;;;;;;53.33;43.00;;;;;3.37;95.83;98316.00;4845383;28;102000;-74
2023/04/22 02:33:12;;;;;;;;;54.00;43.33;;;;;3.36;95.88;98322.34;4847375;28;103988;-72
2023/04/22 02:35:39;;;;;;;;;68.00;49.33;;;;;3.28;98.85;98311.63;4848638;28;108471;-73
2023/04/22 02:38:06;;;;;;;;;50.33;42.67;;;;;3.35;98.40;98319.81;4845193;28;102849;-73
2023/04/22 02:40:33;;;;;;;;;36.33;30.67;;;;;3.42;97.19;98320.88;4843479;28;102063;-73
2023/04/22 02:43:00;;;;;;;;;31.33;24.00;;;;;3.40;96.00;98315.66;4850570;28;102340;-74
2023/04/22 02:45:27;;;;;;;;;48.33;41.00;;;;;3.31;95.90;98316.66;4848955;28;104191;-73
2023/04/22 02:47:54;;;;;;;;;70.33;54.67;;;;;3.20;96.88;98314.25;4847600;28;103149;-74
2023/04/22 02:50:21;;;;;;;;;68.67;50.00;;;;;3.14;96.86;98321.09;4839710;28;102095;-73
2023/04/22 02:52:48;;;;;;;;;60.00;50.33;;;;;3.08;96.35;98318.22;4844497;28;102361;-74
2023/04/22 02:55:15;;;;;;;;;47.33;40.33;;;;;3.14;98.02;98317.59;4846241;28;104030;-72
2023/04/22 02:57:42;;;;;;;;;44.33;38.33;;;;;3.11;98.62;98316.06;4846279;28;103178;-74
2023/04/22 03:00:09;;;;;;;;;38.00;33.00;;;;;3.12;98.19;98316.91;4841583;28;103803;-73
2023/04/22 03:02:37;;;;;;;;;31.33;30.00;;;;;3.07;98.05;98316.53;4843415;28;102384;-74
2023/04/22 03:05:05;;;;;;;;;34.33;34.33;;;;;3.04;97.70;98314.22;4851059;28;104210;-74
2023/04/22 03:07:32;;;;;;;;;42.00;37.00;;;;;2.90;97.16;98307.63;4849791;28;102106;-73
2023/04/22 03:09:59;;;;;;;;;59.33;46.00;;;;;2.76;100.00;98320.75;4845599;28;102070;-73
2023/04/22 03:12:25;;;;;;;;;42.67;36.33;;;;;2.82;100.00;98322.78;4845076;28;102362;-73
2023/04/22 03:14:52;;;;;;;;;37.33;33.67;;;;;2.80;100.00;98311.41;4849125;28;104180;-73
2023/04/22 03:17:19;;;;;;;;;42.67;37.67;;;;;2.77;100.00;98317.91;4846696;28;102008;-73
2023/04/22 03:19:46;;;;;;;;;59.67;44.00;;;;;2.73;99.63;98316.56;4848373;28;102364;-73
2023/04/22 03:22:13;;;;;;;;;60.00;45.00;;;;;2.67;99.89;98315.34;4841173;28;102170;-73
2023/04/22 03:24:40;;;;;;;;;40.67;38.00;;;;;2.69;99.94;98313.38;4850214;28;103768;-73
2023/04/22 03:27:09;;;;;;;;;40.67;32.33;;;;;2.77;100.00;98317.06;4845291;28;102510;-73
2023/04/22 03:29:36;;;;;;;;;33.33;27.33;;;;;2.79;99.89;98320.44;4844740;28;102193;-73
2023/04/22 03:32:04;;;;;;;;;24.00;20.75;;;;;2.83;99.37;98321.78;4847045;28;102295;-74
2023/04/22 03:34:31;;;;;;;;;45.00;37.33;;;;;2.76;98.70;98323.41;4848415;28;104111;-74
2023/04/22 03:36:58;;;;;;;;;31.33;28.00;;;;;2.69;98.68;98313.38;4846009;28;102605;-73
2023/04/22 03:39:24;;;;;;;;;29.50;25.75;;;;;2.77;98.60;98323.25;4848698;28;103139;-74
2023/04/22 03:41:51;;;;;;;;;20.75;19.00;;;;;2.79;99.03;98325.78;4835146;28;102378;-73
2023/04/22 03:44:18;;;;;;;;;14.00;10.00;;;;;2.81;98.69;98318.44;4842526;28;104102;-74
2023/04/22 03:46:45;;;;;;;;;12.75;11.00;;;;;2.84;97.59;98328.78;4851479;28;102084;-73
2023/04/22 03:49:12;;;;;;;;;17.75;12.25;;;;;2.85;97.07;98328.63;4850145;28;102586;-73
2023/04/22 03:51:39;;;;;;;;;35.00;31.33;;;;;2.73;98.73;98326.41;4850367;28;102074;-73
2023/04/22 03:54:06;;;;;;;;;36.00;33.00;;;;;2.65;99.54;98325.38;4841960;28;104101;-73
2023/04/22 03:56:33;;;;;;;;;42.00;34.67;;;;;2.63;100.00;98323.84;4843011;28;107520;-74
2023/04/22 03:59:00;;;;;;;;;28.33;24.67;;;;;2.67;100.00;98328.72;4845983;28;102776;-74
2023/04/22 04:01:27;;;;;;;;;27.67;22.33;;;;;2.75;100.00;98329.75;4841554;28;105506;-74
2023/04/22 04:03:54;;;;;;;;;32.00;28.00;;;;;2.70;99.64;98317.69;4839812;28;103952;-74
2023/04/22 04:06:21;;;;;;;;;46.00;37.33;;;;;2.59;100.00;98331.34;4843151;28;102326;-73
2023/04/22 04:08:48;;;;;;;;;47.33;41.67;;;;;2.55;100.00;98332.66;4847347;28;101916;-73
2023/04/22 04:11:15;;;;;;;;;41.67;37.00;;;;;2.65;100.00;98327.19;4845419;28;102028;-72
2023/04/22 04:13:42;;;;;;;;;28.67;27.33;;;;;2.75;100.00;98335.91;4839313;28;104184;-74
2023/04/22 04:16:09;;;;;;;;;28.75;22.25;;;;;2.83;100.00;98337.81;4840633;28;102420;-73
2023/04/22 04:18:37;;;;;;;;;18.00;15.00;;;;;2.92;99.57;98339.53;4852846;28;102015;-72
2023/04/22 04:21:04;;;;;;;;;22.00;19.50;;;;;2.92;99.26;98334.19;4843647;28;103000;-73
2023/04/22 04:23:31;;;;;;;;;20.25;16.00;;;;;2.98;99.33;98339.72;4840845;28;104129;-72
2023/04/22 04:26:01;;;;;;;;;20.75;16.25;;;;;3.03;99.83;98328.53;4840165;28;102724;-74
2023/04/22 04:28:32;;;;;;;;;16.75;15.25;;;;;3.13;99.25;98329.28;4850335;28;102285;-73
2023/04/22 04:31:01;;;;;;;;;12.00;11.00;;;;;3.21;98.07;98331.97;4846903;28;107072;-72
2023/04/22 04:33:31;;;;;;;;;12.00;10.00;;;;;3.26;98.37;98331.47;4842763;28;104161;-72
2023/04/22 04:35:59;;;;;;;;;15.25;13.00;;;;;3.35;97.88;98334.03;4841314;28;104857;-73
2023/04/22 04:38:25;;;;;;;;;9.50;9.50;;;;;3.37;97.08;98337.38;4843955;28;101988;-73
2023/04/22 04:40:53;;;;;;;;;26.00;23.00;;;;;3.32;97.94;98339.69;4842933;28;102436;-74
2023/04/22 04:43:24;;;;;;;;;30.00;22.25;;;;;3.39;98.17;98338.03;4846736;28;103426;-72
2023/04/22 04:45:52;;;;;;;;;19.25;16.50;;;;;3.52;97.84;98349.09;4843783;28;102357;-73
2023/04/22 04:48:19;;;;;;;;;17.50;14.00;;;;;3.68;97.87;98342.13;4844901;28;101955;-73
2023/04/22 04:50:46;;;;;;;;;21.25;15.00;;;;;3.81;97.38;98329.97;4844276;28;102272;-74
2023/04/22 04:53:13;;;;;;;;;19.00;16.75;;;;;3.93;97.24;98338.47;4846801;28;108803;-74
2023/04/22 04:55:40;;;;;;;;;17.25;12.00;;;;;4.11;95.64;98352.53;4842533;28;102591;-74
2023/04/22 04:58:07;;;;;;;;;16.75;15.75;;;;;4.26;94.94;98344.69;4836611;28;102116;-73
2023/04/22 05:00:34;;;;;;;;;10.00;9.00;;;;;4.39;94.14;98348.53;4842073;28;101944;-73
2023/04/22 05:03:01;;;;;;;;;15.00;11.00;;;;;4.44;92.59;98346.19;4838817;28;104170;-73
2023/04/22 05:05:28;;;;;;;;;18.50;15.25;;;;;4.60;91.31;98348.00;4840563;28;103249;-72
2023/04/22 05:07:55;;;;;;;;;25.50;20.00;;;;;4.81;92.21;98339.44;4833670;28;102054;-72
2023/04/22 05:10:23;;;;;;;;;21.75;17.50;;;;;5.33;92.33;98339.75;4837190;28;102633;-73
2023/04/22 05:12:50;;;;;;;;;31.50;27.50;;;;;6.02;87.91;98330.84;4833882;28;106528;-73
2023/04/22 05:15:17;;;;;;;;;24.75;23.00;;;;;6.74;84.96;98336.59;4831424;28;102417;-73
2023/04/22 05:17:44;;;;;;;;;24.75;22.00;;;;;7.49;81.87;98333.69;4837821;28;103294;-73
2023/04/22 05:20:11;;;;;;;;;16.50;14.50;;;;;8.06;78.23;98333.72;4843178;28;102039;-72
2023/04/22 05:22:41;;;;;;;;;20.50;17.50;;;;;8.86;74.57;98336.13;4837520;28;104053;-72
2023/04/22 05:25:09;;;;;;;;;41.75;34.50;;;;;9.59;74.83;98335.50;4840503;28;102371;-72
2023/04/22 05:27:36;;;;;;;;;19.75;17.50;;;;;9.97;68.07;98335.00;4835700;28;103111;-73
2023/04/22 05:30:04;;;;;;;;;23.75;21.25;;;;;10.14;67.96;98331.72;4842176;28;102026;-73
2023/04/22 05:32:31;;;;;;;;;37.75;32.00;;;;;10.96;71.31;98331.38;4846871;28;104042;-74
2023/04/22 05:34:58;;;;;;;;;41.75;35.00;;;;;11.71;64.23;98335.31;4845766;28;103430;-73
2023/04/22 05:37:25;;;;;;;;;48.25;37.75;;;;;12.11;63.44;98324.34;4847408;28;102040;-73
2023/04/22 05:39:52;;;;;;;;;33.25;30.50;;;;;12.63;62.09;98337.53;4847655;28;102362;-73
2023/04/22 05:42:19;;;;;;;;;40.75;33.25;;;;;12.96;59.59;98335.38;4847468;28;104043;-73
2023/04/22 05:44:46;;;;;;;;;36.25;32.50;;;;;13.25;58.69;98330.31;4847898;28;102044;-74
2023/04/22 05:47:13;;;;;;;;;44.50;38.50;;;;;13.63;57.25;98336.38;4822157;28;102222;-73
2023/04/22 05:49:39;;;;;;;;;46.50;37.75;;;;;13.98;54.98;98331.13;4844531;28;102340;-72
2023/04/22 05:52:07;;;;;;;;;42.25;34.50;;;;;14.48;54.63;98334.44;4846656;28;103572;-72
2023/04/22 05:54:34;;;;;;;;;44.50;37.00;;;;;14.91;52.15;98336.88;4850485;28;102268;-73
2023/04/22 05:57:01;;;;;;;;;43.75;36.75;;;;;15.19;52.28;98331.56;4844783;28;103108;-73
2023/04/22 05:59:29;;;;;;;;;41.25;35.00;;;;;15.44;48.53;98333.22;4842684;28;102334;-73
2023/04/22 06:01:56;;;;;;;;;40.75;33.75;;;;;15.89;47.30;98330.66;4846965;28;104004;-73
2023/04/22 06:04:23;;;;;;;;;47.00;37.75;;;;;16.36;48.12;98328.56;4847265;28;101795;-72
2023/04/22 06:06:53;;;;;;;;;44.25;36.00;;;;;16.62;46.00;98338.06;4842756;28;106351;-73
2023/04/22 06:09:21;;;;;;;;;34.50;29.75;;;;;16.79;45.08;98334.31;4845811;28;102064;-73
2023/04/22 06:11:48;;;;;;;;;40.00;33.00;;;;;17.01;44.37;98339.84;4842566;28;104126;-73
2023/04/22 06:14:15;;;;;;;;;38.00;33.00;;;;;16.90;46.51;98343.47;4849312;28;102512;-73
2023/04/22 06:16:42;;;;;;;;;33.75;32.00;;;;;17.25;43.59;98337.75;4849660;28;102544;-73
2023/04/22 06:19:09;;;;;;;;;35.75;31.25;;;;;17.15;45.16;98341.19;4846832;28;102463;-73
2023/04/22 06:21:38;;;;;;;;;30.50;28.50;;;;;17.16;42.64;98341.97;4844354;28;103839;-73
2023/04/22 06:24:05;;;;;;;;;36.75;32.50;;;;;17.39;43.30;98341.78;4849181;28;102408;-73
2023/04/22 06:26:32;;;;;;;;;37.25;33.75;;;;;17.57;43.52;98351.63;4851331;28;101916;-73
2023/04/22 06:29:01;;;;;;;;;40.25;32.75;;;;;17.95;42.66;98339.84;4840073;28;102107;-73
2023/04/22 06:31:28;;;;;;;;;41.75;33.25;;;;;18.18;41.88;98345.91;4838780;28;104002;-73
2023/04/22 06:33:55;;;;;;;;;20.75;20.25;;;;;18.35;42.04;98334.84;4840475;28;102385;-73
2023/04/22 06:36:23;;;;;;;;;28.50;26.00;;;;;17.86;40.11;98342.22;4841190;28;102212;-73
2023/04/22 06:38:50;;;;;;;;;38.00;33.75;;;;;17.96;45.94;98341.50;4845279;28;103176;-73
2023/04/22 06:41:17;;;;;;;;;34.75;31.25;;;;;18.19;42.14;98338.50;4839972;28;103977;-73
2023/04/22 06:43:44;;;;;;;;;29.50;28.00;;;;;18.33;42.23;98337.00;4840833;28;102192;-73
2023/04/22 06:46:11;;;;;;;;;35.50;31.75;;;;;17.79;43.36;98347.84;4851165;28;102318;-73
2023/04/22 06:48:38;;;;;;;;;37.00;31.25;;;;;18.24;42.28;98330.34;4843893;28;104402;-73
2023/04/22 06:51:05;;;;;;;;;30.50;29.25;;;;;18.39;41.83;98341.47;4843984;28;104010;-73
2023/04/22 06:53:32;;;;;;;;;40.00;31.00;;;;;18.81;41.48;98338.06;4835574;28;103410;-72
2023/04/22 06:55:59;;;;;;;;;35.50;29.50;;;;;17.65;40.46;98340.31;4821199;28;102005;-73
2023/04/22 06:58:25;;;;;;;;;41.25;34.25;;;;;18.23;42.54;98331.44;4849227;28;102265;-73
2023/04/22 07:00:52;;;;;;;;;36.25;32.00;;;;;18.35;39.66;98329.38;4843056;28;104037;-73
2023/04/22 07:03:19;;;;;;;;;35.75;29.75;;;;;18.52;40.19;98330.09;4839794;28;102496;-73
2023/04/22 07:05:47;;;;;;;;;35.75;29.75;;;;;18.80;41.33;98330.94;4838138;28;102364;-73
2023/04/22 07:08:14;;;;;;;;;21.33;18.67;;;;;18.92;41.76;98337.06;4844915;28;104603;-73
2023/04/22 07:10:42;;;;;;;;;25.00;23.00;;;;;17.97;39.43;98337.69;4838270;28;104100;-74
2023/04/22 07:13:09;;;;;;;;;25.25;23.75;;;;;17.24;42.03;98347.03;4838248;28;102355;-73
2023/04/22 07:15:35;;;;;;;;;28.00;25.75;;;;;17.36;41.85;98334.94;4839294;28;104070;-73
2023/04/22 07:18:03;;;;;;;;;21.00;19.67;;;;;17.58;41.95;98340.47;4849020;28;102103;-74
2023/04/22 07:20:30;;;;;;;;;19.00;16.33;;;;;17.75;43.19;98341.25;4848831;28;104036;-73
2023/04/22 07:22:57;;;;;;;;;13.00;13.00;;;;;17.61;42.79;98337.22;4837217;28;102181;-72
2023/04/22 07:25:24;;;;;;;;;17.75;16.75;;;;;17.49;45.05;98344.69;4849327;28;102080;-72
2023/04/22 07:27:51;;;;;;;;;21.00;19.75;;;;;17.26;43.55;98337.50;4848405;28;102624;-73
2023/04/22 07:30:18;;;;;;;;;20.00;19.33;;;;;17.52;44.76;98341.44;4843881;28;104036;-73
2023/04/22 07:32:44;;;;;;;;;16.67;15.00;;;;;17.80;43.18;98332.28;4837529;28;102428;-72
2023/04/22 07:35:14;;;;;;;;;11.00;10.00;;;;;18.04;42.41;98338.31;4836237;28;102051;-72
2023/04/22 07:37:41;;;;;;;;;14.33;13.33;;;;;18.24;42.52;98327.59;4847416;28;102118;-73
2023/04/22 07:40:10;;;;;;;;;9.00;8.00;;;;;18.40;40.33;98340.38;4839985;28;104034;-73
2023/04/22 07:42:39;;;;;;;;;9.00;8.00;;;;;18.51;40.77;98335.81;4837555;28;103321;-73
2023/04/22 07:45:06;;;;;;;;;10.67;9.33;;;;;18.60;40.95;98332.41;4836112;28;102108;-73
2023/04/22 07:47:33;;;;;;;;;8.00;8.00;;;;;18.67;39.11;98330.28;4839864;28;102392;-74
2023/04/22 07:50:00;;;;;;;;;7.00;7.00;;;;;18.67;36.35;98322.06;4845216;28;103997;-73
2023/04/22 07:52:28;;;;;;;;;6.00;6.00;;;;;18.70;35.43;98329.75;4844757;28;102281;-74
2023/04/22 07:54:56;;;;;;;;;5.67;5.00;;;;;18.67;34.94;98327.56;4840080;28;102029;-74
2023/04/22 07:57:22;;;;;;;;;5.00;5.00;;;;;18.80;37.14;98330.94;4848188;28;102120;-73
2023/04/22 07:59:51;;;;;;;;;4.00;4.00;;;;;18.80;35.12;98331.78;4840425;28;104120;-74
2023/04/22 08:02:18;;;;;;;;;13.33;11.00;;;;;18.40;34.55;98326.69;4845365;28;101953;-73
2023/04/22 08:04:45;;;;;;;;;9.00;7.67;;;;;18.53;39.70;98331.78;4843890;28;102032;-73
2023/04/22 08:07:13;;;;;;;;;5.67;5.67;;;;;18.73;36.92;98334.72;4839651;28;102551;-73
2023/04/22 08:09:58;;;;;;;;;5.33;4.00;;;;;18.68;35.50;98320.16;4838464;28;109036;-74
2023/04/22 08:12:25;;;;;;;;;8.67;8.00;;;;;18.65;36.41;98324.22;4846336;28;102156;-72
2023/04/22 08:14:53;;;;;;;;;14.67;13.67;;;;;18.10;35.35;98324.44;4836585;28;101894;-74
2023/04/22 08:17:20;;;;;;;;;17.75;16.25;;;;;17.77;35.73;98332.78;4847970;28;102460;-72
2023/04/22 08:19:48;;;;;;;;;16.25;13.75;;;;;17.79;38.89;98327.88;4840195;28;104159;-72
2023/04/22 08:22:17;;;;;;;;;19.25;16.00;;;;;17.48;33.16;98328.53;4844688;28;102797;-73
2023/04/22 08:24:44;;;;;;;;;16.67;14.67;;;;;17.62;37.18;98330.69;4834937;28;107745;-72
2023/04/22 08:27:11;;;;;;;;;13.00;12.33;;;;;17.72;37.21;98319.88;4838826;28;102615;-72
2023/04/22 08:29:38;;;;;;;;;11.67;11.00;;;;;18.20;37.27;98326.47;4840397;28;104016;-72
2023/04/22 08:32:05;;;;;;;;;8.67;7.00;;;;;18.31;33.06;98322.78;4846000;28;101944;-73
2023/04/22 08:34:32;;;;;;;;;9.33;8.33;;;;;17.88;31.11;98320.88;4839481;28;102233;-73
2023/04/22 08:36:59;;;;;;;;;10.00;9.33;;;;;18.13;36.04;98314.91;4840917;28;102079;-73
2023/04/22 08:39:26;;;;;;;;;6.33;5.00;;;;;18.43;35.57;98320.69;4849938;28;104189;-73
2023/04/22 08:41:57;;;;;;;;;7.67;6.67;;;;;18.58;33.23;98317.31;4847285;28;102425;-72
2023/04/22 08:44:25;;;;;;;;;8.00;6.00;;;;;18.83;34.11;98309.31;4837510;28;102485;-73
2023/04/22 08:46:53;;;;;;;;;5.00;5.00;;;;;18.90;36.17;98303.63;4835057;28;102025;-73
2023/04/22 08:49:23;;;;;;;;;6.00;6.00;;;;;18.99;36.45;98307.53;4837814;28;104230;-73
2023/04/22 08:51:51;;;;;;;;;4.00;4.00;;;;;19.10;34.81;98314.75;4834159;28;103604;-73
2023/04/22 08:54:18;;;;;;;;;4.67;4.67;;;;;19.23;34.77;98316.22;4833910;28;103440;-74
2023/04/22 08:56:49;;;;;;;;;4.00;4.00;;;;;19.28;34.31;98311.56;4836648;28;102369;-74
2023/04/22 08:59:19;;;;;;;;;8.00;8.00;;;;;19.15;33.61;98309.31;4845107;28;104137;-73
2023/04/22 09:01:50;;;;;;;;;5.00;4.33;;;;;19.27;32.57;98315.44;4850720;28;102044;-72
2023/04/22 09:04:18;;;;;;;;;8.00;7.00;;;;;19.10;36.39;98309.25;4843456;28;102024;-73
2023/04/22 09:06:45;;;;;;;;;7.00;6.67;;;;;19.17;34.46;98305.22;4842131;28;102499;-73
2023/04/22 09:09:13;;;;;;;;;13.00;12.67;;;;;19.18;36.19;98306.06;4842185;28;104067;-73
2023/04/22 09:11:40;;;;;;;;;9.67;9.33;;;;;19.19;33.25;98299.44;4850510;28;102589;-73
2023/04/22 09:14:07;;;;;;;;;4.33;4.33;;;;;19.23;34.58;98302.53;4848214;28;102077;-73
2023/04/22 09:16:43;;;;;;;;;7.00;7.00;;;;;19.35;36.49;98297.66;4840764;28;102120;-73
2023/04/22 09:19:12;;;;;;;;;10.33;9.67;;;;;19.22;33.58;98303.59;4843607;28;104133;-74
2023/04/22 09:21:40;;;;;;;;;9.00;8.00;;;;;19.05;32.09;98301.00;4851278;28;102109;-73
2023/04/22 09:24:09;;;;;;;;;11.00;10.00;;;;;18.97;31.92;98296.00;4841575;28;103943;-73
2023/04/22 09:26:41;;;;;;;;;13.00;12.00;;;;;18.73;33.34;98302.94;4847203;28;102227;-73
2023/04/22 09:29:14;;;;;;;;;14.67;14.33;;;;;18.46;33.07;98290.06;4842384;28;103737;-73
2023/04/22 09:31:50;;;;;;;;;12.67;12.67;;;;;18.76;33.94;98291.47;4856004;28;102443;-73
2023/04/22 09:34:20;;;;;;;;;13.67;12.67;;;;;18.66;33.88;98290.28;4850346;28;102731;-73
2023/04/22 09:36:50;;;;;;;;;14.00;12.00;;;;;18.63;33.64;98277.13;4846251;28;102596;-73
2023/04/22 09:39:17;;;;;;;;;9.67;8.00;;;;;18.95;34.76;98279.03;4835250;28;103935;-73
2023/04/22 09:41:52;;;;;;;;;8.67;8.00;;;;;19.18;34.69;98278.63;4848630;28;103288;-73
2023/04/22 09:44:19;;;;;;;;;8.00;8.00;;;;;19.19;34.46;98277.53;4835874;28;103360;-73
2023/04/22 09:46:48;;;;;;;;;9.33;9.33;;;;;19.51;34.62;98277.47;4850157;28;102271;-73
2023/04/22 09:49:16;;;;;;;;;7.00;7.00;;;;;19.69;35.26;98254.25;4844208;28;104004;-73
2023/04/22 09:51:43;;;;;;;;;6.00;6.00;;;;;19.80;32.54;98266.91;4841506;28;103439;-73
2023/04/22 09:54:10;;;;;;;;;5.33;4.67;;;;;19.99;31.78;98270.84;4842189;28;102158;-74
2023/04/22 09:56:48;;;;;;;;;5.00;4.67;;;;;20.08;32.04;98260.16;4841840;28;102062;-73
2023/04/22 09:59:19;;;;;;;;;4.00;4.00;;;;;20.26;33.59;98262.41;4843267;28;104058;-73
2023/04/22 10:01:48;;;;;;;;;4.33;3.33;;;;;20.21;32.06;98256.91;4843452;28;102198;-72
2023/04/22 10:04:20;;;;;;;;;9.00;9.00;;;;;19.74;30.85;98259.75;4848974;28;102178;-73
2023/04/22 10:06:47;;;;;;;;;5.67;5.67;;;;;19.70;31.86;98253.16;4848607;28;102175;-73
2023/04/22 10:09:19;;;;;;;;;7.67;7.67;;;;;19.43;35.08;98258.75;4841788;28;104452;-73
2023/04/22 10:11:47;;;;;;;;;10.00;9.67;;;;;19.29;32.74;98261.16;4838889;28;102048;-73
2023/04/22 10:14:14;;;;;;;;;12.00;11.00;;;;;19.31;32.68;98239.78;4842584;28;101982;-73
2023/04/22 10:16:46;;;;;;;;;11.67;10.33;;;;;19.33;33.57;98255.94;4849375;28;102034;-73
2023/04/22 10:19:20;;;;;;;;;8.67;8.67;;;;;19.54;32.43;98242.09;4845314;28;104106;-72
2023/04/22 10:21:52;;;;;;;;;10.67;10.00;;;;;19.45;34.17;98240.97;4827453;28;102544;-73
2023/04/22 10:24:20;;;;;;;;;13.00;11.00;;;;;19.39;32.71;98247.50;4852076;28;102427;-73
2023/04/22 10:26:50;;;;;;;;;8.33;7.33;;;;;19.77;33.69;98245.53;4848853;28;102241;-72
2023/04/22 10:29:19;;;;;;;;;6.00;6.00;;;;;19.92;31.91;98245.56;4843949;28;104236;-72
2023/04/22 10:32:23;;;;;;;;;11.00;10.00;;;;;20.06;29.33;98235.72;4841177;28;102153;-73
2023/04/22 10:35:07;;;;;;;;;5.00;5.00;;;;;20.46;31.92;98238.56;4845066;28;102022;-73
2023/04/22 10:37:34;;;;;;;;;5.33;5.00;;;;;20.50;29.40;98238.81;4838897;28;102192;-73
2023/04/22 10:40:14;;;;;;;;;6.00;5.00;;;;;20.62;29.18;98244.91;4841110;28;104036;-73
2023/04/22 10:42:48;;;;;;;;;6.67;6.67;;;;;20.28;29.07;98238.22;4844208;28;102485;-73
2023/04/22 10:45:15;;;;;;;;;6.33;5.00;;;;;20.44;27.56;98237.19;4853718;28;106915;-73
2023/04/22 10:47:43;;;;;;;;;5.00;4.67;;;;;20.46;29.21;98241.31;4845531;28;102218;-73
2023/04/22 10:50:20;;;;;;;;;4.00;4.00;;;;;20.62;26.78;98235.81;4844193;28;104106;-73
2023/04/22 10:52:55;;;;;;;;;9.00;8.00;;;;;19.82;27.64;98221.66;4840613;28;102160;-73
2023/04/22 10:55:22;;;;;;;;;4.67;4.67;;;;;20.24;29.71;98224.22;4845358;28;102020;-73
2023/04/22 10:57:51;;;;;;;;;6.33;6.33;;;;;20.07;30.76;98226.38;4843999;28;103104;-73
2023/04/22 11:00:19;;;;;;;;;3.00;3.00;;;;;20.43;29.26;98233.63;4840097;28;103983;-73
2023/04/22 11:02:51;;;;;;;;;6.67;6.00;;;;;20.07;29.03;98214.59;4833178;28;103095;-73
2023/04/22 11:05:21;;;;;;;;;6.33;5.33;;;;;20.40;29.46;98223.16;4842447;28;102054;-73
2023/04/22 11:08:00;;;;;;;;;5.00;5.00;;;;;20.55;29.56;98216.03;4842305;28;104233;-73
2023/04/22 11:10:40;;;;;;;;;5.00;4.00;;;;;20.67;29.43;98217.38;4843862;28;108664;-72
2023/04/22 11:13:15;;;;;;;;;6.33;4.67;;;;;20.76;28.09;98215.75;4838494;28;102583;-72
2023/04/22 11:15:45;;;;;;;;;4.00;4.00;;;;;20.57;29.22;98209.19;4840822;28;103066;-73
2023/04/22 11:18:21;;;;;;;;;5.00;5.00;;;;;20.36;28.94;98164.38;4842362;28;103895;-73
2023/04/22 11:20:49;;;;;;;;;5.00;5.00;;;;;20.74;30.75;98215.22;4840454;28;103833;-73
2023/04/22 11:23:19;;;;;;;;;5.33;5.00;;;;;20.80;30.02;98205.84;4843540;28;102454;-73